sensor_id;sensor_type;location;lat;lon;timestamp;pressure;altitude;pressure_sealevel;temperature;humidity
69624;BME280;56843;52.020;5.670;2022-07-17T00:00:57;102572.72;;;9.44;75.92
69624;BME280;56843;52.020;5.670;2022-07-17T00:02:27;102572.47;;;9.40;75.93
69624;BME280;56843;52.020;5.670;2022-07-17T00:03:58;102569.28;;;9.38;76.14
69624;BME280;56843;52.020;5.670;2022-07-17T00:05:28;102565.81;;;9.38;76.22
69624;BME280;56843;52.020;5.670;2022-07-17T00:06:58;102571.13;;;9.38;76.33
69624;BME280;56843;52.020;5.670;2022-07-17T00:08:29;102565.81;;;9.38;76.31
69624;BME280;56843;52.020;5.670;2022-07-17T00:10:02;102553.81;;;9.35;76.50
69624;BME280;56843;52.020;5.670;2022-07-17T00:11:33;102558.63;;;9.33;76.47
69624;BME280;56843;52.020;5.670;2022-07-17T00:13:04;102562.34;;;9.32;76.62
69624;BME280;56843;52.020;5.670;2022-07-17T00:14:34;102559.94;;;9.31;76.68
69624;BME280;56843;52.020;5.670;2022-07-17T00:16:05;102564.75;;;9.29;76.79
69624;BME280;56843;52.020;5.670;2022-07-17T00:17:35;102563.44;;;9.26;76.90
69624;BME280;56843;52.020;5.670;2022-07-17T00:19:06;102561.81;;;9.25;76.77
69624;BME280;56843;52.020;5.670;2022-07-17T00:20:37;102565.28;;;9.26;76.99
69624;BME280;56843;52.020;5.670;2022-07-17T00:22:08;102561.28;;;9.23;76.99
69624;BME280;56843;52.020;5.670;2022-07-17T00:23:39;102563.97;;;9.23;77.06
69624;BME280;56843;52.020;5.670;2022-07-17T00:25:10;102552.53;;;9.23;77.20
69624;BME280;56843;52.020;5.670;2022-07-17T00:26:40;102563.44;;;9.21;77.16
69624;BME280;56843;52.020;5.670;2022-07-17T00:28:10;102560.75;;;9.21;77.28
69624;BME280;56843;52.020;5.670;2022-07-17T00:29:41;102560.00;;;9.21;77.43
69624;BME280;56843;52.020;5.670;2022-07-17T00:31:12;102556.25;;;9.22;77.19
69624;BME280;56843;52.020;5.670;2022-07-17T00:32:43;102547.19;;;9.23;77.28
69624;BME280;56843;52.020;5.670;2022-07-17T00:34:13;102560.75;;;9.21;77.24
69624;BME280;56843;52.020;5.670;2022-07-17T00:35:44;102558.09;;;9.21;77.34
69624;BME280;56843;52.020;5.670;2022-07-17T00:37:14;102555.97;;;9.23;77.35
69624;BME280;56843;52.020;5.670;2022-07-17T00:38:44;102549.56;;;9.24;77.33
69624;BME280;56843;52.020;5.670;2022-07-17T00:40:20;102555.44;;;9.26;77.21
69624;BME280;56843;52.020;5.670;2022-07-17T00:41:51;102559.72;;;9.27;77.33
69624;BME280;56843;52.020;5.670;2022-07-17T00:43:22;102561.81;;;9.30;77.27
69624;BME280;56843;52.020;5.670;2022-07-17T00:44:53;102553.81;;;9.30;77.20
69624;BME280;56843;52.020;5.670;2022-07-17T00:46:23;102561.81;;;9.30;77.11
69624;BME280;56843;52.020;5.670;2022-07-17T00:49:24;102565.53;;;9.34;77.07
69624;BME280;56843;52.020;5.670;2022-07-17T00:50:55;102562.84;;;9.34;77.20
69624;BME280;56843;52.020;5.670;2022-07-17T00:52:25;102565.53;;;9.34;77.00
69624;BME280;56843;52.020;5.670;2022-07-17T00:53:57;102562.09;;;9.34;77.20
69624;BME280;56843;52.020;5.670;2022-07-17T00:55:29;102562.34;;;9.32;77.14
69624;BME280;56843;52.020;5.670;2022-07-17T00:57:01;102556.47;;;9.30;77.07
69624;BME280;56843;52.020;5.670;2022-07-17T00:58:35;102560.75;;;9.31;77.07
69624;BME280;56843;52.020;5.670;2022-07-17T01:00:06;102543.94;;;9.31;77.09
69624;BME280;56843;52.020;5.670;2022-07-17T01:01:40;102546.91;;;9.29;77.25
69624;BME280;56843;52.020;5.670;2022-07-17T01:03:11;102543.72;;;9.27;77.21
69624;BME280;56843;52.020;5.670;2022-07-17T01:04:41;102542.09;;;9.26;77.21
69624;BME280;56843;52.020;5.670;2022-07-17T01:06:12;102544.25;;;9.24;77.27
69624;BME280;56843;52.020;5.670;2022-07-17T01:07:43;102545.03;;;9.25;77.36
69624;BME280;56843;52.020;5.670;2022-07-17T01:09:14;102541.84;;;9.23;77.48
69624;BME280;56843;52.020;5.670;2022-07-17T01:10:45;102542.09;;;9.21;77.45
69624;BME280;56843;52.020;5.670;2022-07-17T01:12:15;102543.19;;;9.20;77.44
69624;BME280;56843;52.020;5.670;2022-07-17T01:13:46;102545.34;;;9.18;77.37
69624;BME280;56843;52.020;5.670;2022-07-17T01:15:17;102540.25;;;9.17;77.45
69624;BME280;56843;52.020;5.670;2022-07-17T01:16:48;102540.53;;;9.15;77.63
69624;BME280;56843;52.020;5.670;2022-07-17T01:18:19;102540.81;;;9.14;77.63
69624;BME280;56843;52.020;5.670;2022-07-17T01:19:49;102546.38;;;9.12;77.89
69624;BME280;56843;52.020;5.670;2022-07-17T01:21:19;102546.38;;;9.12;77.74
69624;BME280;56843;52.020;5.670;2022-07-17T01:22:50;102548.28;;;9.12;77.61
69624;BME280;56843;52.020;5.670;2022-07-17T01:24:21;102552.81;;;9.11;77.59
69624;BME280;56843;52.020;5.670;2022-07-17T01:25:51;102548.28;;;9.12;77.60
69624;BME280;56843;52.020;5.670;2022-07-17T01:27:22;102549.06;;;9.12;77.58
69624;BME280;56843;52.020;5.670;2022-07-17T01:28:53;102555.47;;;9.11;77.77
69624;BME280;56843;52.020;5.670;2022-07-17T01:30:23;102558.41;;;9.10;77.59
69624;BME280;56843;52.020;5.670;2022-07-17T01:31:54;102564.78;;;9.09;77.63
69624;BME280;56843;52.020;5.670;2022-07-17T01:33:24;102564.28;;;9.07;77.65
69624;BME280;56843;52.020;5.670;2022-07-17T01:34:55;102560.81;;;9.06;77.55
69624;BME280;56843;52.020;5.670;2022-07-17T01:36:25;102572.53;;;9.05;77.54
69624;BME280;56843;52.020;5.670;2022-07-17T01:37:56;102568.53;;;9.03;77.80
69624;BME280;56843;52.020;5.670;2022-07-17T01:39:26;102570.41;;;9.02;77.57
69624;BME280;56843;52.020;5.670;2022-07-17T01:41:16;102566.94;;;8.97;77.57
69624;BME280;56843;52.020;5.670;2022-07-17T01:42:49;102572.53;;;8.95;77.76
69624;BME280;56843;52.020;5.670;2022-07-17T01:44:19;102561.63;;;8.92;77.94
69624;BME280;56843;52.020;5.670;2022-07-17T01:45:50;102566.97;;;8.92;77.88
69624;BME280;56843;52.020;5.670;2022-07-17T01:47:20;102566.44;;;8.90;78.04
69624;BME280;56843;52.020;5.670;2022-07-17T01:48:51;102563.75;;;8.90;78.13
69624;BME280;56843;52.020;5.670;2022-07-17T01:50:25;102560.56;;;8.88;78.34
69624;BME280;56843;52.020;5.670;2022-07-17T01:51:55;102569.63;;;8.86;78.46
69624;BME280;56843;52.020;5.670;2022-07-17T01:53:30;102554.44;;;8.82;78.46
69624;BME280;56843;52.020;5.670;2022-07-17T01:55:00;102561.91;;;8.80;78.69
69624;BME280;56843;52.020;5.670;2022-07-17T01:56:30;102564.03;;;8.78;78.75
69624;BME280;56843;52.020;5.670;2022-07-17T01:58:01;102566.69;;;8.73;78.82
69624;BME280;56843;52.020;5.670;2022-07-17T01:59:31;102565.34;;;8.70;78.94
69624;BME280;56843;52.020;5.670;2022-07-17T02:01:02;102557.63;;;8.69;78.96
69624;BME280;56843;52.020;5.670;2022-07-17T02:02:32;102553.91;;;8.65;79.08
69624;BME280;56843;52.020;5.670;2022-07-17T02:04:03;102554.16;;;8.63;79.22
69624;BME280;56843;52.020;5.670;2022-07-17T02:05:33;102548.31;;;8.61;79.39
69624;BME280;56843;52.020;5.670;2022-07-17T02:07:04;102545.09;;;8.59;79.48
69624;BME280;56843;52.020;5.670;2022-07-17T02:08:35;102540.84;;;8.58;79.36
69624;BME280;56843;52.020;5.670;2022-07-17T02:10:09;102547.50;;;8.56;79.51
69624;BME280;56843;52.020;5.670;2022-07-17T02:11:40;102548.81;;;8.53;79.61
69624;BME280;56843;52.020;5.670;2022-07-17T02:13:10;102549.34;;;8.50;79.65
69624;BME280;56843;52.020;5.670;2022-07-17T02:14:41;102547.22;;;8.47;79.61
69624;BME280;56843;52.020;5.670;2022-07-17T02:16:11;102554.94;;;8.44;79.76
69624;BME280;56843;52.020;5.670;2022-07-17T02:17:42;102542.69;;;8.43;79.75
69624;BME280;56843;52.020;5.670;2022-07-17T02:19:14;102542.41;;;8.39;79.80
69624;BME280;56843;52.020;5.670;2022-07-17T02:20:44;102541.88;;;8.37;79.88
69624;BME280;56843;52.020;5.670;2022-07-17T02:22:19;102556.50;;;8.35;79.99
69624;BME280;56843;52.020;5.670;2022-07-17T02:23:50;102546.41;;;8.32;80.06
69624;BME280;56843;52.020;5.670;2022-07-17T02:25:20;102548.25;;;8.31;80.22
69624;BME280;56843;52.020;5.670;2022-07-17T02:26:51;102547.72;;;8.29;80.12
69624;BME280;56843;52.020;5.670;2022-07-17T02:28:21;102549.06;;;8.27;80.31
69624;BME280;56843;52.020;5.670;2022-07-17T02:29:52;102551.19;;;8.25;80.31
69624;BME280;56843;52.020;5.670;2022-07-17T02:31:22;102547.19;;;8.22;80.39
69624;BME280;56843;52.020;5.670;2022-07-17T02:32:53;102552.78;;;8.21;80.32
69624;BME280;56843;52.020;5.670;2022-07-17T02:34:23;102549.84;;;8.17;80.55
69624;BME280;56843;52.020;5.670;2022-07-17T02:35:53;102553.56;;;8.16;80.50
69624;BME280;56843;52.020;5.670;2022-07-17T02:37:24;102548.53;;;8.14;80.57
69624;BME280;56843;52.020;5.670;2022-07-17T02:38:54;102548.22;;;8.11;80.67
69624;BME280;56843;52.020;5.670;2022-07-17T02:40:25;102556.47;;;8.09;80.67
69624;BME280;56843;52.020;5.670;2022-07-17T02:41:56;102560.47;;;8.07;80.73
69624;BME280;56843;52.020;5.670;2022-07-17T02:43:26;102557.28;;;8.05;81.02
69624;BME280;56843;52.020;5.670;2022-07-17T02:44:58;102546.91;;;8.03;81.06
69624;BME280;56843;52.020;5.670;2022-07-17T02:46:29;102564.97;;;8.01;81.08
69624;BME280;56843;52.020;5.670;2022-07-17T02:48:00;102562.56;;;8.00;81.15
69624;BME280;56843;52.020;5.670;2022-07-17T02:49:30;102565.22;;;8.00;81.27
69624;BME280;56843;52.020;5.670;2022-07-17T02:51:01;102563.88;;;7.97;81.39
69624;BME280;56843;52.020;5.670;2022-07-17T02:52:31;102568.69;;;7.95;81.53
69624;BME280;56843;52.020;5.670;2022-07-17T02:54:02;102564.97;;;7.96;81.44
69624;BME280;56843;52.020;5.670;2022-07-17T02:55:32;102563.88;;;7.97;81.41
69624;BME280;56843;52.020;5.670;2022-07-17T02:57:03;102563.88;;;7.97;81.24
69624;BME280;56843;52.020;5.670;2022-07-17T02:58:33;102568.16;;;7.98;81.21
69624;BME280;56843;52.020;5.670;2022-07-17T03:00:06;102572.16;;;8.01;81.38
69624;BME280;56843;52.020;5.670;2022-07-17T03:01:38;102560.44;;;8.02;81.23
69624;BME280;56843;52.020;5.670;2022-07-17T03:03:08;102564.97;;;8.01;81.23
69624;BME280;56843;52.020;5.670;2022-07-17T03:04:39;102566.84;;;8.01;81.09
69624;BME280;56843;52.020;5.670;2022-07-17T03:06:10;102564.44;;;7.99;81.29
69624;BME280;56843;52.020;5.670;2022-07-17T03:07:42;102566.56;;;7.97;81.17
69624;BME280;56843;52.020;5.670;2022-07-17T03:09:12;102573.72;;;7.97;81.22
69624;BME280;56843;52.020;5.670;2022-07-17T03:10:43;102572.16;;;7.96;81.40
69624;BME280;56843;52.020;5.670;2022-07-17T03:12:14;102574.81;;;7.96;81.57
69624;BME280;56843;52.020;5.670;2022-07-17T03:13:44;102574.00;;;7.95;81.12
69624;BME280;56843;52.020;5.670;2022-07-17T03:15:15;102572.16;;;7.96;81.50
69624;BME280;56843;52.020;5.670;2022-07-17T03:16:45;102573.19;;;7.95;81.39
69624;BME280;56843;52.020;5.670;2022-07-17T03:18:16;102565.47;;;7.93;81.22
69624;BME280;56843;52.020;5.670;2022-07-17T03:19:46;102570.00;;;7.93;81.35
69624;BME280;56843;52.020;5.670;2022-07-17T03:21:16;102571.06;;;7.92;81.36
69624;BME280;56843;52.020;5.670;2022-07-17T03:22:47;102560.66;;;7.90;81.47
69624;BME280;56843;52.020;5.670;2022-07-17T03:24:17;102553.50;;;7.91;81.46
69624;BME280;56843;52.020;5.670;2022-07-17T03:25:48;102546.31;;;7.91;81.40
69624;BME280;56843;52.020;5.670;2022-07-17T03:27:18;102540.19;;;7.91;81.50
69624;BME280;56843;52.020;5.670;2022-07-17T03:28:49;102543.66;;;7.91;81.77
69624;BME280;56843;52.020;5.670;2022-07-17T03:30:19;102532.22;;;7.91;81.63
69624;BME280;56843;52.020;5.670;2022-07-17T03:31:50;102541.81;;;7.92;81.72
69624;BME280;56843;52.020;5.670;2022-07-17T03:33:20;102530.38;;;7.91;81.84
69624;BME280;56843;52.020;5.670;2022-07-17T03:34:50;102543.66;;;7.91;81.70
69624;BME280;56843;52.020;5.670;2022-07-17T03:36:21;102551.66;;;7.91;81.70
69624;BME280;56843;52.020;5.670;2022-07-17T03:37:51;102547.94;;;7.92;81.82
69624;BME280;56843;52.020;5.670;2022-07-17T03:39:25;102547.13;;;7.92;81.89
69624;BME280;56843;52.020;5.670;2022-07-17T03:40:55;102544.19;;;7.93;81.53
69624;BME280;56843;52.020;5.670;2022-07-17T03:42:26;102546.06;;;7.93;81.57
69624;BME280;56843;52.020;5.670;2022-07-17T03:43:56;102546.31;;;7.91;81.68
69624;BME280;56843;52.020;5.670;2022-07-17T03:45:26;102543.66;;;7.91;81.57
69624;BME280;56843;52.020;5.670;2022-07-17T03:46:57;102552.44;;;7.92;81.65
69624;BME280;56843;52.020;5.670;2022-07-17T03:48:28;102561.25;;;7.92;81.61
69624;BME280;56843;52.020;5.670;2022-07-17T03:49:59;102556.19;;;7.96;81.57
69624;BME280;56843;52.020;5.670;2022-07-17T03:51:29;102563.66;;;7.99;81.56
69624;BME280;56843;52.020;5.670;2022-07-17T03:53:00;102575.59;;;8.01;81.53
69624;BME280;56843;52.020;5.670;2022-07-17T03:54:30;102576.16;;;8.03;81.36
69624;BME280;56843;52.020;5.670;2022-07-17T03:56:00;102573.25;;;8.05;81.34
69624;BME280;56843;52.020;5.670;2022-07-17T03:57:31;102579.63;;;8.09;81.11
69624;BME280;56843;52.020;5.670;2022-07-17T03:59:02;102584.16;;;8.13;81.04
69624;BME280;56843;52.020;5.670;2022-07-17T04:00:32;102577.25;;;8.18;80.95
69624;BME280;56843;52.020;5.670;2022-07-17T04:02:03;102577.53;;;8.21;80.73
69624;BME280;56843;52.020;5.670;2022-07-17T04:03:33;102577.53;;;8.26;80.55
69624;BME280;56843;52.020;5.670;2022-07-17T04:05:04;102589.00;;;8.32;80.38
69624;BME280;56843;52.020;5.670;2022-07-17T04:06:39;102591.13;;;8.35;80.21
69624;BME280;56843;52.020;5.670;2022-07-17T04:08:09;102593.25;;;8.38;80.28
69624;BME280;56843;52.020;5.670;2022-07-17T04:09:40;102599.94;;;8.40;80.23
69624;BME280;56843;52.020;5.670;2022-07-17T04:11:10;102594.31;;;8.42;80.24
69624;BME280;56843;52.020;5.670;2022-07-17T04:12:41;102593.28;;;8.43;80.19
69624;BME280;56843;52.020;5.670;2022-07-17T04:14:12;102594.63;;;8.45;80.14
69624;BME280;56843;52.020;5.670;2022-07-17T04:15:42;102583.97;;;8.45;80.23
69624;BME280;56843;52.020;5.670;2022-07-17T04:17:30;102594.34;;;8.47;80.22
69624;BME280;56843;52.020;5.670;2022-07-17T04:19:00;102597.81;;;8.47;80.15
69624;BME280;56843;52.020;5.670;2022-07-17T04:20:31;102601.28;;;8.48;80.16
69624;BME280;56843;52.020;5.670;2022-07-17T04:22:01;102597.25;;;8.50;80.12
69624;BME280;56843;52.020;5.670;2022-07-17T04:23:32;102595.94;;;8.53;80.22
69624;BME280;56843;52.020;5.670;2022-07-17T04:25:03;102591.97;;;8.55;80.19
69624;BME280;56843;52.020;5.670;2022-07-17T04:26:33;102595.94;;;8.58;80.13
69624;BME280;56843;52.020;5.670;2022-07-17T04:28:04;102601.81;;;8.60;80.24
69624;BME280;56843;52.020;5.670;2022-07-17T04:29:35;102600.53;;;8.62;80.18
69624;BME280;56843;52.020;5.670;2022-07-17T04:31:06;102598.38;;;8.64;79.99
69624;BME280;56843;52.020;5.670;2022-07-17T04:32:36;102605.06;;;8.67;80.14
69624;BME280;56843;52.020;5.670;2022-07-17T04:34:07;102600.25;;;8.69;80.02
69624;BME280;56843;52.020;5.670;2022-07-17T04:35:38;102598.66;;;8.73;80.12
69624;BME280;56843;52.020;5.670;2022-07-17T04:37:08;102594.66;;;8.75;80.08
69624;BME280;56843;52.020;5.670;2022-07-17T04:38:39;102601.31;;;8.78;80.07
69624;BME280;56843;52.020;5.670;2022-07-17T04:40:11;102599.47;;;8.78;79.96
69624;BME280;56843;52.020;5.670;2022-07-17T04:41:41;102613.31;;;8.80;80.07
69624;BME280;56843;52.020;5.670;2022-07-17T04:43:12;102606.66;;;8.83;80.02
69624;BME280;56843;52.020;5.670;2022-07-17T04:44:43;102607.19;;;8.85;80.07
69624;BME280;56843;52.020;5.670;2022-07-17T04:46:13;102608.53;;;8.88;79.89
69624;BME280;56843;52.020;5.670;2022-07-17T04:47:44;102607.97;;;8.91;79.88
69624;BME280;56843;52.020;5.670;2022-07-17T04:49:14;102599.47;;;8.94;79.82
69624;BME280;56843;52.020;5.670;2022-07-17T04:50:45;102599.72;;;8.97;79.64
69624;BME280;56843;52.020;5.670;2022-07-17T04:52:15;102593.06;;;9.00;79.66
69624;BME280;56843;52.020;5.670;2022-07-17T04:53:46;102602.09;;;9.04;79.49
69624;BME280;56843;52.020;5.670;2022-07-17T04:55:16;102603.72;;;9.05;79.65
69624;BME280;56843;52.020;5.670;2022-07-17T04:56:47;102590.13;;;9.06;79.63
69624;BME280;56843;52.020;5.670;2022-07-17T04:58:17;102590.63;;;9.08;79.52
69624;BME280;56843;52.020;5.670;2022-07-17T04:59:48;102587.44;;;9.11;79.56
69624;BME280;56843;52.020;5.670;2022-07-17T05:01:19;102590.66;;;9.13;79.69
69624;BME280;56843;52.020;5.670;2022-07-17T05:02:50;102587.69;;;9.15;79.50
69624;BME280;56843;52.020;5.670;2022-07-17T05:04:20;102587.16;;;9.18;79.44
69624;BME280;56843;52.020;5.670;2022-07-17T05:05:51;102585.03;;;9.20;79.29
69624;BME280;56843;52.020;5.670;2022-07-17T05:07:21;102592.75;;;9.21;79.34
69624;BME280;56843;52.020;5.670;2022-07-17T05:08:51;102587.94;;;9.23;79.36
69624;BME280;56843;52.020;5.670;2022-07-17T05:10:22;102590.88;;;9.27;79.37
69624;BME280;56843;52.020;5.670;2022-07-17T05:11:53;102597.28;;;9.31;79.40
69624;BME280;56843;52.020;5.670;2022-07-17T05:13:23;102587.13;;;9.33;79.30
69624;BME280;56843;52.020;5.670;2022-07-17T05:14:53;102583.94;;;9.36;79.26
69624;BME280;56843;52.020;5.670;2022-07-17T05:16:24;102582.59;;;9.38;79.19
69624;BME280;56843;52.020;5.670;2022-07-17T05:17:54;102581.78;;;9.43;79.14
69624;BME280;56843;52.020;5.670;2022-07-17T05:19:25;102582.56;;;9.48;79.02
69624;BME280;56843;52.020;5.670;2022-07-17T05:20:55;102573.22;;;9.51;78.94
69624;BME280;56843;52.020;5.670;2022-07-17T05:22:25;102577.47;;;9.57;78.90
69624;BME280;56843;52.020;5.670;2022-07-17T05:23:56;102577.72;;;9.60;78.74
69624;BME280;56843;52.020;5.670;2022-07-17T05:25:26;102571.59;;;9.65;78.59
69624;BME280;56843;52.020;5.670;2022-07-17T05:26:57;102584.63;;;9.72;78.50
69624;BME280;56843;52.020;5.670;2022-07-17T05:28:27;102577.66;;;9.76;78.56
69624;BME280;56843;52.020;5.670;2022-07-17T05:29:58;102583.78;;;9.81;78.44
69624;BME280;56843;52.020;5.670;2022-07-17T05:31:28;102576.56;;;9.87;78.25
69624;BME280;56843;52.020;5.670;2022-07-17T05:32:59;102587.19;;;9.92;78.01
69624;BME280;56843;52.020;5.670;2022-07-17T05:34:29;102590.63;;;9.97;77.96
69624;BME280;56843;52.020;5.670;2022-07-17T05:36:00;102577.78;;;10.04;77.70
69624;BME280;56843;52.020;5.670;2022-07-17T05:37:31;102584.69;;;10.10;77.48
69624;BME280;56843;52.020;5.670;2022-07-17T05:39:02;102585.22;;;10.17;77.06
69624;BME280;56843;52.020;5.670;2022-07-17T05:40:32;102587.06;;;10.22;77.16
69624;BME280;56843;52.020;5.670;2022-07-17T05:42:03;102582.75;;;10.31;76.98
69624;BME280;56843;52.020;5.670;2022-07-17T05:43:33;102584.00;;;10.39;76.78
69624;BME280;56843;52.020;5.670;2022-07-17T05:45:04;102591.72;;;10.45;76.84
69624;BME280;56843;52.020;5.670;2022-07-17T05:46:35;102592.19;;;10.52;76.54
69624;BME280;56843;52.020;5.670;2022-07-17T05:48:06;102591.59;;;10.60;76.33
69624;BME280;56843;52.020;5.670;2022-07-17T05:49:37;102601.41;;;10.70;76.06
69624;BME280;56843;52.020;5.670;2022-07-17T05:51:07;102588.75;;;10.80;75.80
69624;BME280;56843;52.020;5.670;2022-07-17T05:52:38;102589.72;;;10.94;75.48
69624;BME280;56843;52.020;5.670;2022-07-17T05:54:08;102597.59;;;11.09;74.97
69624;BME280;56843;52.020;5.670;2022-07-17T05:55:39;102601.94;;;11.29;74.32
69624;BME280;56843;52.020;5.670;2022-07-17T05:57:09;102595.56;;;11.49;73.80
69624;BME280;56843;52.020;5.670;2022-07-17T05:58:40;102586.78;;;11.72;73.09
69624;BME280;56843;52.020;5.670;2022-07-17T06:00:10;102584.75;;;12.06;72.29
69624;BME280;56843;52.020;5.670;2022-07-17T06:01:44;102586.56;;;12.62;70.10
69624;BME280;56843;52.020;5.670;2022-07-17T06:03:15;102601.34;;;13.23;68.54
69624;BME280;56843;52.020;5.670;2022-07-17T06:04:46;102597.38;;;13.89;66.44
69624;BME280;56843;52.020;5.670;2022-07-17T06:06:16;102599.09;;;14.56;64.42
69624;BME280;56843;52.020;5.670;2022-07-17T06:07:47;102593.19;;;15.21;62.50
69624;BME280;56843;52.020;5.670;2022-07-17T06:09:17;102588.13;;;15.76;60.69
69624;BME280;56843;52.020;5.670;2022-07-17T06:10:48;102580.44;;;16.26;59.31
69624;BME280;56843;52.020;5.670;2022-07-17T06:12:18;102593.13;;;16.68;57.93
69624;BME280;56843;52.020;5.670;2022-07-17T06:13:49;102598.28;;;17.07;56.92
69624;BME280;56843;52.020;5.670;2022-07-17T06:15:21;102596.44;;;17.37;56.02
69624;BME280;56843;52.020;5.670;2022-07-17T06:16:51;102588.13;;;17.71;55.30
69624;BME280;56843;52.020;5.670;2022-07-17T06:18:22;102589.97;;;18.08;54.69
69624;BME280;56843;52.020;5.670;2022-07-17T06:19:52;102589.59;;;18.51;53.76
69624;BME280;56843;52.020;5.670;2022-07-17T06:21:23;102593.38;;;19.03;52.47
69624;BME280;56843;52.020;5.670;2022-07-17T06:22:54;102605.72;;;19.49;51.79
69624;BME280;56843;52.020;5.670;2022-07-17T06:24:24;102597.34;;;19.78;50.31
69624;BME280;56843;52.020;5.670;2022-07-17T06:25:54;102604.63;;;20.14;49.71
69624;BME280;56843;52.020;5.670;2022-07-17T06:27:25;102604.72;;;20.58;48.68
69624;BME280;56843;52.020;5.670;2022-07-17T06:28:55;102597.25;;;20.98;47.77
69624;BME280;56843;52.020;5.670;2022-07-17T06:30:26;102608.66;;;21.35;46.96
69624;BME280;56843;52.020;5.670;2022-07-17T06:31:57;102612.66;;;21.72;45.77
69624;BME280;56843;52.020;5.670;2022-07-17T06:33:27;102609.72;;;21.96;45.36
69624;BME280;56843;52.020;5.670;2022-07-17T06:34:58;102611.69;;;22.15;44.90
69624;BME280;56843;52.020;5.670;2022-07-17T06:36:28;102609.53;;;22.24;44.15
69624;BME280;56843;52.020;5.670;2022-07-17T06:37:59;102614.38;;;22.34;43.97
69624;BME280;56843;52.020;5.670;2022-07-17T06:39:29;102621.69;;;22.49;44.13
69624;BME280;56843;52.020;5.670;2022-07-17T06:41:01;102620.63;;;22.73;43.47
69624;BME280;56843;52.020;5.670;2022-07-17T06:42:32;102636.97;;;22.95;42.86
69624;BME280;56843;52.020;5.670;2022-07-17T06:44:02;102639.59;;;23.11;42.28
69624;BME280;56843;52.020;5.670;2022-07-17T06:45:33;102633.13;;;23.19;41.99
69624;BME280;56843;52.020;5.670;2022-07-17T06:47:04;102630.75;;;23.40;41.56
69624;BME280;56843;52.020;5.670;2022-07-17T06:48:34;102631.94;;;23.65;41.09
69624;BME280;56843;52.020;5.670;2022-07-17T06:50:05;102639.44;;;23.98;40.34
69624;BME280;56843;52.020;5.670;2022-07-17T06:51:36;102636.75;;;24.01;39.33
69624;BME280;56843;52.020;5.670;2022-07-17T06:53:06;102630.13;;;24.02;39.20
69624;BME280;56843;52.020;5.670;2022-07-17T06:54:37;102627.25;;;24.22;38.77
69624;BME280;56843;52.020;5.670;2022-07-17T06:56:07;102619.69;;;24.41;38.28
69624;BME280;56843;52.020;5.670;2022-07-17T06:57:38;102626.56;;;24.61;38.08
69624;BME280;56843;52.020;5.670;2022-07-17T06:59:09;102621.66;;;24.74;37.94
69624;BME280;56843;52.020;5.670;2022-07-17T07:00:40;102623.53;;;24.70;37.43
69624;BME280;56843;52.020;5.670;2022-07-17T07:02:10;102630.66;;;24.78;37.42
69624;BME280;56843;52.020;5.670;2022-07-17T07:03:40;102627.78;;;25.04;36.94
69624;BME280;56843;52.020;5.670;2022-07-17T07:05:11;102627.63;;;25.30;36.60
69624;BME280;56843;52.020;5.670;2022-07-17T07:06:42;102639.97;;;25.61;36.30
69624;BME280;56843;52.020;5.670;2022-07-17T07:08:13;102643.72;;;25.93;35.23
69624;BME280;56843;52.020;5.670;2022-07-17T07:09:43;102648.13;;;26.22;34.67
69624;BME280;56843;52.020;5.670;2022-07-17T07:11:14;102653.72;;;26.44;34.29
69624;BME280;56843;52.020;5.670;2022-07-17T07:12:44;102659.28;;;26.68;33.87
69624;BME280;56843;52.020;5.670;2022-07-17T07:14:15;102661.66;;;26.87;33.43
69624;BME280;56843;52.020;5.670;2022-07-17T07:15:45;102653.91;;;27.11;33.06
69624;BME280;56843;52.020;5.670;2022-07-17T07:17:16;102660.94;;;27.40;32.72
69624;BME280;56843;52.020;5.670;2022-07-17T07:18:47;102648.00;;;27.72;32.01
69624;BME280;56843;52.020;5.670;2022-07-17T07:20:17;102656.53;;;27.95;31.55
69624;BME280;56843;52.020;5.670;2022-07-17T07:21:48;102649.91;;;27.86;31.64
69624;BME280;56843;52.020;5.670;2022-07-17T07:23:18;102643.63;;;27.85;31.87
69624;BME280;56843;52.020;5.670;2022-07-17T07:24:49;102644.00;;;27.91;31.21
69624;BME280;56843;52.020;5.670;2022-07-17T07:26:20;102653.75;;;28.09;30.85
69624;BME280;56843;52.020;5.670;2022-07-17T07:27:50;102651.34;;;28.29;30.61
69624;BME280;56843;52.020;5.670;2022-07-17T07:29:21;102649.97;;;28.62;30.00
69624;BME280;56843;52.020;5.670;2022-07-17T07:30:51;102654.97;;;28.88;29.66
69624;BME280;56843;52.020;5.670;2022-07-17T07:32:22;102654.03;;;29.05;29.43
69624;BME280;56843;52.020;5.670;2022-07-17T07:33:52;102655.06;;;29.22;28.72
69624;BME280;56843;52.020;5.670;2022-07-17T07:35:23;102657.69;;;29.39;28.52
69624;BME280;56843;52.020;5.670;2022-07-17T07:36:54;102656.34;;;29.58;28.47
69624;BME280;56843;52.020;5.670;2022-07-17T07:38:24;102658.69;;;29.59;27.72
69624;BME280;56843;52.020;5.670;2022-07-17T07:39:55;102654.06;;;29.49;27.98
69624;BME280;56843;52.020;5.670;2022-07-17T07:41:26;102656.09;;;29.42;28.21
69624;BME280;56843;52.020;5.670;2022-07-17T07:42:57;102654.94;;;29.43;27.87
69624;BME280;56843;52.020;5.670;2022-07-17T07:44:27;102658.78;;;29.49;27.70
69624;BME280;56843;52.020;5.670;2022-07-17T07:45:58;102644.09;;;29.62;28.09
69624;BME280;56843;52.020;5.670;2022-07-17T07:47:28;102650.84;;;29.58;27.08
69624;BME280;56843;52.020;5.670;2022-07-17T07:48:59;102638.09;;;29.30;27.41
69624;BME280;56843;52.020;5.670;2022-07-17T07:50:31;102636.88;;;29.35;27.81
69624;BME280;56843;52.020;5.670;2022-07-17T07:52:01;102641.06;;;29.53;27.30
69624;BME280;56843;52.020;5.670;2022-07-17T07:53:32;102638.34;;;29.87;26.92
69624;BME280;56843;52.020;5.670;2022-07-17T07:55:02;102639.16;;;30.18;26.70
69624;BME280;56843;52.020;5.670;2022-07-17T07:56:33;102644.16;;;30.26;26.53
69624;BME280;56843;52.020;5.670;2022-07-17T07:58:09;102644.34;;;30.42;26.43
69624;BME280;56843;52.020;5.670;2022-07-17T07:59:40;102644.59;;;30.55;26.08
69624;BME280;56843;52.020;5.670;2022-07-17T08:01:11;102645.03;;;30.50;25.65